createdAt,value
2023-02-09T00:04:06.076Z,24.20
2023-02-09T00:09:10.892Z,20.87
2023-02-09T00:14:16.216Z,26.20
2023-02-09T00:19:21.210Z,23.87
2023-02-09T00:24:26.300Z,24.93
2023-02-09T00:29:29.571Z,24.03
2023-02-09T00:34:33.977Z,29.17
2023-02-09T00:39:38.679Z,30.40
2023-02-09T00:44:42.109Z,28.80
2023-02-09T00:49:45.540Z,27.47
2023-02-09T00:54:50.221Z,27.60
2023-02-09T00:59:53.374Z,30.77
2023-02-09T01:04:56.683Z,25.67
2023-02-09T01:10:03.085Z,28.20
2023-02-09T01:15:06.765Z,23.50
2023-02-09T01:20:11.432Z,23.57
2023-02-09T01:25:16.130Z,30.23
2023-02-09T01:30:19.341Z,32.27
2023-02-09T01:35:22.800Z,34.70
2023-02-09T01:40:27.668Z,31.60
2023-02-09T01:45:35.179Z,26.57
2023-02-09T01:50:42.294Z,27.40
2023-02-09T01:55:52.652Z,32.40
2023-02-09T02:00:56.803Z,27.43
2023-02-09T02:06:05.855Z,26.60
2023-02-09T02:11:12.032Z,34.90
2023-02-09T02:16:29.803Z,33.27
2023-02-09T02:22:10.295Z,29.13
2023-02-09T02:27:26.267Z,26.10
2023-02-09T02:32:40.269Z,31.80
2023-02-09T02:37:56.072Z,32.67
2023-02-09T02:43:08.940Z,28.87
2023-02-09T02:48:25.688Z,29.40
2023-02-09T02:53:32.437Z,27.40
2023-02-09T02:58:37.876Z,28.73
2023-02-09T03:03:45.652Z,25.03
2023-02-09T03:08:54.646Z,28.23
2023-02-09T03:14:18.846Z,29.67
2023-02-09T03:19:36.669Z,36.90
2023-02-09T03:24:47.674Z,33.13
2023-02-09T03:29:53.803Z,28.60
2023-02-09T03:34:59.198Z,31.67
2023-02-09T03:40:02.573Z,28.63
2023-02-09T03:45:08.134Z,30.10
2023-02-09T03:50:12.905Z,30.90
2023-02-09T03:55:17.343Z,29.97
2023-02-09T04:00:21.333Z,33.40
2023-02-09T04:05:26.163Z,33.13
2023-02-09T04:10:29.598Z,25.30
2023-02-09T04:15:32.932Z,30.00
2023-02-09T04:20:37.649Z,27.73
2023-02-09T04:25:41.008Z,29.10
2023-02-09T04:30:44.891Z,34.00
2023-02-09T04:35:50.012Z,31.67
2023-02-09T04:40:55.292Z,35.90
2023-02-09T04:45:59.039Z,29.73
2023-02-09T04:51:03.715Z,59.93
2023-02-09T04:56:07.901Z,56.00
2023-02-09T05:01:13.761Z,44.23
2023-02-09T05:06:19.126Z,39.80
2023-02-09T05:11:24.671Z,28.80
2023-02-09T05:16:28.739Z,33.80
2023-02-09T05:21:33.646Z,33.77
2023-02-09T05:26:37.004Z,35.10
2023-02-09T05:31:40.484Z,31.80
2023-02-09T05:36:45.349Z,31.53
2023-02-09T05:42:06.242Z,36.87
2023-02-09T05:47:09.717Z,31.90
2023-02-09T05:52:15.218Z,36.73
2023-02-09T05:57:19.667Z,32.53
2023-02-09T06:02:23.300Z,42.07
2023-02-09T06:07:27.917Z,35.73
2023-02-09T06:12:34.935Z,34.63
2023-02-09T06:17:38.592Z,30.50
2023-02-09T06:22:43.166Z,35.13
2023-02-09T06:27:46.445Z,32.27
2023-02-09T06:32:49.996Z,30.57
2023-02-09T06:37:58.272Z,38.50
2023-02-09T06:43:01.578Z,34.13
2023-02-09T06:48:06.631Z,37.47
2023-02-09T06:53:11.372Z,34.57
2023-02-09T06:58:14.710Z,31.90
2023-02-09T07:03:17.966Z,35.87
2023-02-09T07:08:22.733Z,39.47
2023-02-09T07:13:26.071Z,35.77
2023-02-09T07:18:30.058Z,37.40
2023-02-09T07:23:35.085Z,57.10
2023-02-09T07:28:38.492Z,39.33
2023-02-09T07:33:41.810Z,35.80
2023-02-09T07:38:46.629Z,32.47
2023-02-09T07:43:50.140Z,33.43
2023-02-09T07:48:53.482Z,41.27
2023-02-09T07:54:01.603Z,43.40
2023-02-09T07:59:04.997Z,51.40
2023-02-09T08:04:08.253Z,39.50
2023-02-09T08:09:14.517Z,45.57
2023-02-09T08:14:22.121Z,47.80
2023-02-09T08:19:25.916Z,46.10
2023-02-09T08:24:31.971Z,45.87
2023-02-09T08:29:35.327Z,38.30
2023-02-09T08:34:39.641Z,46.83
2023-02-09T08:39:46.038Z,43.43
2023-02-09T08:44:49.431Z,39.87
2023-02-09T08:49:53.485Z,39.90
2023-02-09T08:55:07.754Z,43.70
2023-02-09T09:00:12.910Z,43.23
2023-02-09T09:05:16.618Z,36.83
2023-02-09T09:10:21.459Z,37.97
2023-02-09T09:15:24.884Z,34.77
2023-02-09T09:20:28.448Z,29.47
2023-02-09T09:25:33.216Z,33.20
2023-02-09T09:30:36.811Z,32.60
2023-02-09T09:35:40.023Z,26.70
2023-02-09T09:40:46.753Z,26.90
2023-02-09T09:45:50.636Z,27.67
2023-02-09T09:50:57.181Z,27.63
2023-02-09T09:56:05.463Z,26.65
2023-02-09T10:01:13.415Z,27.85
2023-02-09T10:06:19.269Z,30.50
2023-02-09T10:11:30.149Z,31.05
2023-02-09T10:16:38.342Z,32.03
2023-02-09T10:21:41.744Z,30.70
2023-02-09T10:27:04.162Z,38.53
2023-02-09T10:32:15.666Z,30.83
2023-02-09T10:37:22.753Z,32.77
2023-02-09T10:42:31.377Z,30.70
2023-02-09T10:47:34.739Z,34.97
2023-02-09T10:52:40.487Z,32.40
2023-02-09T10:57:45.320Z,36.37
2023-02-09T11:02:52.303Z,34.10
2023-02-09T11:07:59.065Z,36.47
2023-02-09T11:13:27.903Z,33.50
2023-02-09T11:19:01.480Z,35.63
2023-02-09T11:24:09.108Z,32.10
2023-02-09T11:29:23.457Z,34.60
2023-02-09T11:34:52.799Z,35.17
2023-02-09T11:40:03.029Z,32.53
2023-02-09T11:45:12.193Z,30.87
2023-02-09T11:50:25.519Z,36.77
2023-02-09T11:55:32.622Z,32.80
2023-02-09T12:00:56.027Z,34.33
2023-02-09T12:06:01.661Z,33.07
2023-02-09T12:11:16.521Z,30.43
2023-02-09T12:16:24.357Z,33.97
2023-02-09T12:21:32.422Z,28.40
2023-02-09T12:26:42.664Z,31.63
2023-02-09T12:32:24.929Z,31.10
2023-02-09T12:37:30.174Z,31.23
2023-02-09T12:42:41.747Z,29.60
2023-02-09T12:48:01.129Z,24.77
2023-02-09T12:53:46.956Z,29.05
2023-02-09T12:58:57.224Z,23.50
2023-02-09T13:04:05.828Z,21.98
2023-02-09T13:09:14.778Z,23.17
2023-02-09T13:14:19.677Z,27.70
2023-02-09T13:19:54.558Z,24.08
2023-02-09T13:25:01.006Z,21.80
2023-02-09T13:30:04.270Z,22.55
2023-02-09T13:35:21.496Z,25.67
2023-02-09T13:40:26.742Z,25.15
2023-02-09T13:45:30.885Z,20.88
2023-02-09T13:50:35.639Z,21.90
2023-02-09T13:55:40.899Z,23.25
2023-02-09T14:00:46.392Z,20.40
2023-02-09T14:05:57.081Z,22.85
2023-02-09T14:11:03.777Z,25.73
2023-02-09T14:16:08.047Z,18.00
2023-02-09T14:21:25.098Z,21.88
2023-02-09T14:26:30.237Z,21.58
2023-02-09T14:31:36.375Z,19.65
2023-02-09T14:36:41.689Z,22.08
2023-02-09T14:41:58.127Z,20.33
2023-02-09T14:47:02.502Z,18.70
2023-02-09T14:52:16.902Z,21.67
2023-02-09T14:57:32.083Z,19.50
2023-02-09T15:02:35.634Z,21.33
2023-02-09T15:07:43.174Z,22.13
2023-02-09T15:12:46.905Z,23.15
2023-02-09T15:17:51.850Z,24.00
2023-02-09T15:22:57.391Z,24.35
2023-02-09T15:28:02.964Z,22.92
2023-02-09T15:33:08.544Z,22.27
2023-02-09T15:38:16.291Z,26.70
2023-02-09T15:43:38.928Z,23.38
2023-02-09T15:48:42.947Z,28.20
2023-02-09T15:53:49.339Z,26.90
2023-02-09T15:58:53.570Z,27.07
2023-02-09T16:04:11.970Z,29.50
2023-02-09T16:09:22.636Z,25.53
2023-02-09T16:14:27.375Z,27.83
2023-02-09T16:19:30.909Z,22.87
2023-02-09T16:24:39.735Z,26.60
2023-02-09T16:29:43.010Z,26.57
2023-02-09T16:34:46.983Z,30.07
2023-02-09T16:39:51.706Z,26.73
2023-02-09T16:44:56.690Z,30.13
2023-02-09T16:50:01.918Z,33.50
2023-02-09T16:55:17.071Z,32.70
2023-02-09T17:00:25.300Z,38.30
2023-02-09T17:05:34.540Z,32.87
2023-02-09T17:10:48.420Z,32.63
2023-02-09T17:15:53.930Z,33.87
2023-02-09T17:21:02.821Z,28.83
2023-02-09T17:26:11.700Z,30.23
2023-02-09T17:31:18.917Z,30.10
2023-02-09T17:36:27.914Z,27.90
2023-02-09T17:41:38.449Z,32.17
2023-02-09T17:46:42.498Z,31.60
2023-02-09T17:51:47.663Z,36.17
2023-02-09T17:56:53.359Z,34.33
2023-02-09T18:01:58.962Z,33.13
2023-02-09T18:07:03.464Z,37.90
2023-02-09T18:12:16.693Z,35.87
2023-02-09T18:17:21.118Z,27.93
2023-02-09T18:22:24.866Z,36.50
2023-02-09T18:27:30.659Z,35.43
2023-02-09T18:32:36.030Z,30.80
2023-02-09T18:37:39.401Z,32.50
2023-02-09T18:42:48.363Z,28.23
2023-02-09T18:47:52.470Z,43.63
2023-02-09T18:52:58.825Z,38.37
2023-02-09T18:58:10.511Z,35.43
2023-02-09T19:03:17.050Z,30.87
2023-02-09T19:08:20.440Z,36.77
2023-02-09T19:13:27.058Z,32.20
2023-02-09T19:18:31.792Z,37.87
2023-02-09T19:23:35.354Z,28.10
2023-02-09T19:28:41.495Z,40.00
2023-02-09T19:33:45.843Z,34.80
2023-02-09T19:38:49.330Z,26.43
2023-02-09T19:43:58.412Z,30.63
2023-02-09T19:49:03.241Z,35.77
2023-02-09T19:54:06.934Z,33.27
2023-02-09T19:59:11.857Z,33.43
2023-02-09T20:04:15.667Z,29.70
2023-02-09T20:09:19.114Z,35.20
2023-02-09T20:14:28.575Z,38.23
2023-02-09T20:19:37.107Z,36.17
2023-02-09T20:24:44.410Z,31.97
2023-02-09T20:29:50.195Z,36.37
2023-02-09T20:34:54.796Z,31.93
2023-02-09T20:39:59.219Z,37.03
2023-02-09T20:45:24.084Z,30.03
2023-02-09T20:50:29.220Z,30.77
2023-02-09T20:55:32.788Z,30.13
2023-02-09T21:00:37.531Z,37.87
2023-02-09T21:05:40.888Z,34.70
2023-02-09T21:10:44.210Z,29.93
2023-02-09T21:15:51.923Z,34.80
2023-02-09T21:20:56.322Z,34.93
2023-02-09T21:26:04.797Z,35.10
2023-02-09T21:31:13.117Z,33.67
2023-02-09T21:36:16.277Z,30.33
2023-02-09T21:41:39.059Z,31.97
2023-02-09T21:46:44.147Z,35.33
2023-02-09T21:51:49.424Z,29.90
2023-02-09T21:56:52.690Z,34.70
2023-02-09T22:01:57.417Z,29.77
2023-02-09T22:07:00.814Z,31.77
2023-02-09T22:12:06.213Z,29.53
2023-02-09T22:17:11.145Z,28.87
2023-02-09T22:22:14.492Z,27.23
2023-02-09T22:27:17.860Z,39.43
2023-02-09T22:32:22.659Z,34.60
2023-02-09T22:37:26.003Z,30.53
2023-02-09T22:42:29.314Z,36.27
2023-02-09T22:47:35.545Z,35.60
2023-02-09T22:52:39.389Z,37.63
2023-02-09T22:57:43.098Z,40.40
2023-02-09T23:02:48.894Z,39.73
2023-02-09T23:07:52.228Z,34.57
2023-02-09T23:12:55.534Z,38.83
2023-02-09T23:18:00.435Z,34.53
2023-02-09T23:23:06.674Z,44.13
2023-02-09T23:28:09.897Z,32.13
2023-02-09T23:33:14.943Z,28.80
2023-02-09T23:38:20.125Z,35.10
2023-02-09T23:43:23.452Z,37.63
2023-02-09T23:48:30.416Z,32.67
2023-02-09T23:53:35.004Z,32.17
2023-02-09T23:58:40.303Z,32.17
